createdAt,value
2023-09-24T00:01:43.006Z,27.51
2023-09-24T00:04:16.347Z,28.11
2023-09-24T00:06:49.619Z,26.54
2023-09-24T00:09:25.041Z,27.10
2023-09-24T00:11:58.658Z,28.47
2023-09-24T00:14:32.294Z,26.25
2023-09-24T00:17:06.948Z,27.97
2023-09-24T00:19:40.686Z,26.08
2023-09-24T00:22:14.571Z,24.53
2023-09-24T00:24:48.136Z,25.80
2023-09-24T00:27:21.342Z,27.33
2023-09-24T00:29:54.544Z,27.13
2023-09-24T00:32:29.130Z,28.61
2023-09-24T00:35:02.317Z,31.26
2023-09-24T00:37:35.659Z,30.46
2023-09-24T00:40:12.307Z,30.05
2023-09-24T00:42:46.171Z,32.46
2023-09-24T00:45:19.374Z,32.92
2023-09-24T00:47:55.877Z,34.67
2023-09-24T00:50:34.319Z,36.03
2023-09-24T00:53:10.967Z,34.51
2023-09-24T00:55:44.631Z,37.83
2023-09-24T00:58:18.625Z,36.74
2023-09-24T01:00:53.875Z,38.11
2023-09-24T01:03:29.436Z,36.28
2023-09-24T01:06:02.749Z,36.97
2023-09-24T01:08:36.182Z,36.69
2023-09-24T01:11:09.625Z,35.13
2023-09-24T01:13:44.549Z,35.71
2023-09-24T01:16:19.251Z,33.47
2023-09-24T01:18:54.731Z,32.70
2023-09-24T01:21:30.426Z,37.86
2023-09-24T01:24:08.133Z,33.44
2023-09-24T01:26:41.537Z,35.40
2023-09-24T01:29:15.312Z,34.97
2023-09-24T01:31:48.525Z,31.20
2023-09-24T01:34:21.755Z,35.60
2023-09-24T01:36:55.699Z,33.87
2023-09-24T01:39:33.165Z,34.22
2023-09-24T01:42:08.729Z,31.84
2023-09-24T01:44:42.846Z,31.22
2023-09-24T01:47:16.076Z,33.20
2023-09-24T01:49:50.744Z,32.37
2023-09-24T01:52:23.996Z,32.38
2023-09-24T01:54:58.538Z,29.20
2023-09-24T01:57:31.810Z,30.22
2023-09-24T02:00:09.830Z,31.91
2023-09-24T02:02:43.385Z,29.52
2023-09-24T02:05:18.018Z,33.43
2023-09-24T02:07:52.615Z,33.63
2023-09-24T02:10:28.491Z,31.52
2023-09-24T02:13:02.673Z,29.43
2023-09-24T02:15:35.886Z,31.01
2023-09-24T02:18:11.402Z,27.52
2023-09-24T02:20:49.773Z,31.19
2023-09-24T02:23:23.735Z,30.00
2023-09-24T02:25:58.544Z,28.96
2023-09-24T02:28:31.699Z,28.83
2023-09-24T02:31:05.644Z,29.72
2023-09-24T02:33:38.946Z,29.45
2023-09-24T02:36:12.325Z,28.08
2023-09-24T02:38:46.005Z,27.14
2023-09-24T02:41:20.576Z,27.80
2023-09-24T02:43:56.063Z,28.04
2023-09-24T02:46:29.330Z,28.32
2023-09-24T02:49:02.634Z,28.63
2023-09-24T02:51:37.103Z,31.17
2023-09-24T02:54:10.600Z,28.53
2023-09-24T02:56:45.244Z,29.12
2023-09-24T02:59:18.420Z,28.01
2023-09-24T03:01:54.419Z,29.66
2023-09-24T03:04:28.854Z,28.22
2023-09-24T03:07:02.130Z,27.52
2023-09-24T03:09:35.294Z,28.74
2023-09-24T03:12:09.926Z,32.33
2023-09-24T03:14:43.066Z,30.65
2023-09-24T03:17:16.235Z,32.34
2023-09-24T03:19:49.338Z,33.75
2023-09-24T03:22:22.923Z,32.76
2023-09-24T03:24:56.042Z,33.82
2023-09-24T03:27:30.531Z,35.11
2023-09-24T03:30:04.485Z,35.83
2023-09-24T03:32:39.098Z,36.52
2023-09-24T03:35:14.628Z,35.38
2023-09-24T03:37:53.899Z,37.26
2023-09-24T03:40:29.214Z,32.42
2023-09-24T03:43:04.172Z,34.56
2023-09-24T03:45:37.467Z,32.43
2023-09-24T03:48:10.733Z,31.17
2023-09-24T03:50:44.236Z,32.56
2023-09-24T03:53:19.291Z,32.09
2023-09-24T03:55:53.992Z,33.40
2023-09-24T03:58:28.476Z,29.52
2023-09-24T04:01:10.671Z,30.42
2023-09-24T04:03:44.240Z,30.38
2023-09-24T04:06:18.345Z,29.51
2023-09-24T04:08:51.551Z,32.93
2023-09-24T04:11:28.694Z,31.60
2023-09-24T04:14:04.062Z,31.40
2023-09-24T04:16:37.272Z,32.06
2023-09-24T04:19:10.531Z,31.14
2023-09-24T04:21:43.682Z,33.25
2023-09-24T04:24:16.898Z,33.79
2023-09-24T04:26:50.232Z,30.71
2023-09-24T04:29:24.838Z,31.08
2023-09-24T04:31:57.909Z,31.30
2023-09-24T04:34:31.114Z,30.44
2023-09-24T04:37:06.496Z,28.97
2023-09-24T04:39:39.792Z,27.73
2023-09-24T04:42:12.955Z,29.31
2023-09-24T04:44:47.484Z,27.91
2023-09-24T04:47:20.587Z,26.94
2023-09-24T04:49:53.856Z,25.27
2023-09-24T04:52:27.032Z,28.51
2023-09-24T04:55:00.226Z,27.28
2023-09-24T04:57:33.473Z,30.56
2023-09-24T05:00:09.523Z,33.06
2023-09-24T05:02:42.835Z,32.64
2023-09-24T05:05:16.778Z,28.05
2023-09-24T05:07:52.091Z,27.37
2023-09-24T05:10:25.285Z,28.69
2023-09-24T05:12:58.397Z,30.79
2023-09-24T05:15:33.009Z,28.14
2023-09-24T05:18:06.441Z,28.88
2023-09-24T05:20:39.812Z,28.00
2023-09-24T05:23:15.268Z,28.11
2023-09-24T05:25:48.350Z,26.97
2023-09-24T05:28:21.450Z,28.50
2023-09-24T05:30:58.336Z,27.79
2023-09-24T05:33:31.795Z,26.35
2023-09-24T05:36:05.802Z,26.61
2023-09-24T05:38:39.120Z,24.35
2023-09-24T05:41:12.360Z,26.25
2023-09-24T05:43:48.276Z,27.16
2023-09-24T05:46:23.312Z,25.39
2023-09-24T05:48:56.542Z,26.43
2023-09-24T05:51:29.805Z,24.15
2023-09-24T05:54:03.355Z,27.49
2023-09-24T05:56:36.586Z,24.49
2023-09-24T05:59:09.892Z,22.51
2023-09-24T06:01:44.526Z,22.91
2023-09-24T06:04:18.194Z,23.59
2023-09-24T06:06:51.633Z,23.89
2023-09-24T06:09:24.814Z,24.46
2023-09-24T06:11:57.996Z,140.19
2023-09-24T06:14:32.368Z,69.62
2023-09-24T06:17:07.142Z,74.17
2023-09-24T06:19:40.456Z,75.99
2023-09-24T06:22:13.600Z,39.94
2023-09-24T06:24:46.778Z,49.21
2023-09-24T06:27:20.462Z,59.83
2023-09-24T06:29:53.887Z,51.22
2023-09-24T06:32:30.444Z,42.44
2023-09-24T06:35:04.526Z,38.58
2023-09-24T06:37:37.648Z,29.23
2023-09-24T06:40:12.134Z,24.76
2023-09-24T06:42:46.952Z,24.57
2023-09-24T06:45:20.133Z,23.17
2023-09-24T06:47:54.865Z,17.09
2023-09-24T06:50:28.278Z,16.90
2023-09-24T06:53:01.407Z,27.20
2023-09-24T06:55:41.111Z,29.11
2023-09-24T06:58:15.695Z,18.78
2023-09-24T07:00:48.812Z,18.62
2023-09-24T07:03:23.475Z,38.37
2023-09-24T07:05:56.811Z,65.69
2023-09-24T07:08:30.043Z,167.61
2023-09-24T07:11:29.202Z,67.79
2023-09-24T07:14:03.305Z,25.91
2023-09-24T07:16:36.953Z,21.82
2023-09-24T07:19:11.638Z,14.76
2023-09-24T07:21:50.229Z,14.40
2023-09-24T07:24:25.698Z,13.24
2023-09-24T07:27:03.968Z,13.77
2023-09-24T07:29:37.320Z,15.47
2023-09-24T07:32:10.536Z,12.87
2023-09-24T07:34:47.650Z,13.87
2023-09-24T07:37:20.843Z,17.96
2023-09-24T07:39:53.975Z,16.89
2023-09-24T07:42:27.113Z,16.36
2023-09-24T07:45:00.366Z,14.36
2023-09-24T07:47:33.619Z,14.55
2023-09-24T07:50:09.088Z,14.24
2023-09-24T07:52:44.282Z,16.54
2023-09-24T07:55:17.612Z,13.68
2023-09-24T07:57:50.881Z,15.10
2023-09-24T08:00:24.033Z,15.72
2023-09-24T08:02:57.571Z,12.93
2023-09-24T08:05:33.763Z,11.62
2023-09-24T08:08:07.523Z,12.17
2023-09-24T08:10:40.761Z,11.41
2023-09-24T08:13:13.955Z,11.98
2023-09-24T08:15:47.469Z,12.23
2023-09-24T08:18:23.118Z,12.08
2023-09-24T08:20:59.185Z,12.56
2023-09-24T08:23:32.473Z,11.71
2023-09-24T08:26:05.691Z,12.20
2023-09-24T08:28:38.963Z,11.22
2023-09-24T08:31:12.265Z,13.00
2023-09-24T08:33:45.578Z,11.17
2023-09-24T08:36:20.404Z,11.13
2023-09-24T08:38:53.604Z,11.29
2023-09-24T08:41:27.071Z,10.82
2023-09-24T08:44:06.307Z,12.05
2023-09-24T08:46:40.427Z,8.98
2023-09-24T08:49:15.717Z,9.79
2023-09-24T08:51:51.782Z,12.28
2023-09-24T08:54:26.624Z,9.57
2023-09-24T08:56:59.771Z,10.18
2023-09-24T08:59:33.005Z,11.10
2023-09-24T09:02:08.446Z,10.02
2023-09-24T09:04:49.507Z,8.84
2023-09-24T09:07:24.126Z,10.28
2023-09-24T09:10:00.879Z,10.15
2023-09-24T09:12:34.066Z,9.56
2023-09-24T09:15:18.274Z,10.23
2023-09-24T09:17:51.523Z,11.65
2023-09-24T09:20:42.096Z,9.97
2023-09-24T09:23:17.489Z,10.53
2023-09-24T09:25:53.402Z,10.42
2023-09-24T09:28:27.886Z,10.00
2023-09-24T09:31:06.999Z,10.03
2023-09-24T09:33:42.771Z,10.29
2023-09-24T09:36:25.880Z,10.03
2023-09-24T09:39:00.385Z,11.12
2023-09-24T09:41:35.635Z,10.53
2023-09-24T09:44:09.851Z,11.87
2023-09-24T09:46:48.352Z,10.90
2023-09-24T09:49:25.831Z,12.28
2023-09-24T09:52:02.265Z,10.92
2023-09-24T09:54:41.605Z,9.55
2023-09-24T09:57:15.703Z,9.58
2023-09-24T09:59:49.576Z,10.61
2023-09-24T10:02:22.932Z,10.13
2023-09-24T10:04:58.530Z,9.91
2023-09-24T10:07:31.892Z,12.85
2023-09-24T10:10:43.657Z,12.65
2023-09-24T10:13:51.727Z,11.08
2023-09-24T10:16:40.169Z,10.95
2023-09-24T10:19:15.168Z,11.97
2023-09-24T10:21:48.934Z,11.48
2023-09-24T10:24:49.634Z,12.02
2023-09-24T10:27:27.141Z,10.59
2023-09-24T10:30:08.838Z,9.70
2023-09-24T10:32:46.177Z,8.84
2023-09-24T10:35:20.589Z,10.12
2023-09-24T10:38:05.756Z,12.14
2023-09-24T10:41:05.420Z,11.10
2023-09-24T10:43:39.940Z,9.63
2023-09-24T10:46:29.060Z,11.70
2023-09-24T10:49:04.119Z,10.62
2023-09-24T10:51:37.310Z,10.14
2023-09-24T10:54:15.580Z,9.72
2023-09-24T10:56:49.730Z,12.35
2023-09-24T10:59:35.870Z,10.89
2023-09-24T11:02:21.436Z,9.99
2023-09-24T11:04:55.586Z,10.54
2023-09-24T11:07:28.790Z,9.57
2023-09-24T11:10:01.956Z,10.16
2023-09-24T11:12:35.118Z,9.53
2023-09-24T11:15:16.179Z,10.79
2023-09-24T11:17:51.378Z,10.61
2023-09-24T11:20:25.959Z,11.56
2023-09-24T11:23:00.464Z,9.77
2023-09-24T11:25:33.785Z,9.96
2023-09-24T11:28:07.826Z,11.08
2023-09-24T11:30:44.594Z,11.23
2023-09-24T11:33:19.819Z,11.67
2023-09-24T11:35:55.639Z,9.62
2023-09-24T11:38:31.257Z,10.17
2023-09-24T11:41:09.722Z,11.51
2023-09-24T11:43:43.237Z,9.47
2023-09-24T11:46:23.573Z,11.29
2023-09-24T11:49:00.015Z,10.59
2023-09-24T11:51:33.484Z,10.09
2023-09-24T11:54:07.218Z,10.27
2023-09-24T11:56:40.443Z,10.43
2023-09-24T11:59:13.675Z,10.17
2023-09-24T12:01:48.161Z,11.14
2023-09-24T12:04:21.377Z,9.88
2023-09-24T12:06:55.088Z,12.15
2023-09-24T12:09:28.530Z,9.13
2023-09-24T12:12:04.112Z,10.11
2023-09-24T12:14:37.236Z,10.11
2023-09-24T12:17:11.736Z,9.89
2023-09-24T12:19:44.900Z,9.19
2023-09-24T12:22:19.121Z,8.66
2023-09-24T12:24:52.382Z,9.45
2023-09-24T12:27:26.959Z,9.04
2023-09-24T12:30:00.125Z,7.99
2023-09-24T12:32:35.765Z,7.50
2023-09-24T12:35:12.232Z,8.16
2023-09-24T12:37:45.379Z,9.39
2023-09-24T12:40:18.611Z,12.22
2023-09-24T12:42:52.045Z,9.69
2023-09-24T12:45:25.345Z,8.78
2023-09-24T12:48:00.016Z,7.76
2023-09-24T12:50:34.097Z,8.52
2023-09-24T12:53:07.173Z,9.50
2023-09-24T12:55:40.338Z,9.63
2023-09-24T12:58:14.112Z,7.71
2023-09-24T13:00:47.250Z,8.48
2023-09-24T13:03:21.872Z,8.63
2023-09-24T13:05:55.158Z,9.98
2023-09-24T13:08:28.298Z,9.28
2023-09-24T13:11:01.497Z,10.48
2023-09-24T13:13:34.734Z,9.79
2023-09-24T13:16:07.981Z,9.87
2023-09-24T13:18:44.613Z,7.50
2023-09-24T13:21:18.031Z,7.91
2023-09-24T13:23:51.322Z,8.11
2023-09-24T13:26:24.535Z,9.09
2023-09-24T13:28:58.049Z,10.39
2023-09-24T13:31:31.399Z,9.16
2023-09-24T13:34:06.239Z,8.65
2023-09-24T13:36:41.038Z,8.29
2023-09-24T13:39:14.806Z,9.71
2023-09-24T13:41:47.984Z,9.23
2023-09-24T13:44:21.151Z,9.76
2023-09-24T13:46:54.491Z,8.97
2023-09-24T13:49:29.686Z,8.74
2023-09-24T13:52:04.458Z,9.17
2023-09-24T13:54:37.989Z,9.39
2023-09-24T13:57:12.700Z,8.36
2023-09-24T13:59:45.906Z,8.71
2023-09-24T14:02:21.785Z,8.36
2023-09-24T14:04:56.269Z,9.95
2023-09-24T14:07:29.397Z,8.77
2023-09-24T14:10:19.974Z,8.22
2023-09-24T14:12:53.122Z,7.50
2023-09-24T14:15:26.275Z,8.62
2023-09-24T14:18:13.219Z,8.74
2023-09-24T14:20:48.760Z,7.88
2023-09-24T14:23:21.951Z,8.09
2023-09-24T14:25:55.206Z,8.14
2023-09-24T14:28:28.301Z,8.53
2023-09-24T14:31:05.143Z,6.74
2023-09-24T14:33:38.373Z,7.54
2023-09-24T14:36:12.881Z,7.81
2023-09-24T14:38:46.057Z,6.93
2023-09-24T14:41:19.191Z,7.62
2023-09-24T14:43:52.266Z,8.54
2023-09-24T14:46:25.457Z,7.75
2023-09-24T14:48:58.785Z,7.46
2023-09-24T14:51:35.952Z,8.16
2023-09-24T14:54:10.157Z,8.79
2023-09-24T14:56:43.486Z,8.17
2023-09-24T14:59:16.607Z,7.22
2023-09-24T15:01:49.841Z,7.35
2023-09-24T15:04:23.048Z,7.15
2023-09-24T15:06:57.537Z,17.71
2023-09-24T15:09:31.077Z,16.39
2023-09-24T15:12:06.358Z,10.95
2023-09-24T15:14:39.463Z,9.03
2023-09-24T15:17:12.708Z,10.85
2023-09-24T15:19:46.339Z,8.87
2023-09-24T15:22:20.739Z,7.87
2023-09-24T15:24:53.804Z,9.11
2023-09-24T15:27:28.242Z,8.14
2023-09-24T15:30:02.962Z,8.47
2023-09-24T15:32:36.098Z,10.79
2023-09-24T15:35:10.401Z,7.66
2023-09-24T15:37:44.748Z,9.46
2023-09-24T15:40:18.215Z,8.25
2023-09-24T15:42:51.348Z,6.93
2023-09-24T15:45:24.579Z,7.93
2023-09-24T15:47:58.115Z,8.46
2023-09-24T15:50:32.647Z,7.19
2023-09-24T15:53:07.104Z,6.82
2023-09-24T15:55:42.213Z,8.38
2023-09-24T15:58:16.885Z,7.89
2023-09-24T16:00:50.547Z,7.95
2023-09-24T16:03:23.650Z,7.24
2023-09-24T16:05:56.993Z,7.23
2023-09-24T16:08:32.446Z,7.54
2023-09-24T16:11:05.503Z,7.50
2023-09-24T16:13:41.019Z,7.45
2023-09-24T16:16:14.603Z,6.70
2023-09-24T16:18:47.752Z,6.49
2023-09-24T16:21:20.855Z,6.81
2023-09-24T16:23:55.504Z,7.43
2023-09-24T16:26:28.618Z,7.66
2023-09-24T16:29:01.723Z,6.83
2023-09-24T16:31:34.929Z,8.14
2023-09-24T16:34:11.231Z,6.48
2023-09-24T16:36:44.438Z,7.80
2023-09-24T16:39:21.308Z,8.36
2023-09-24T16:41:54.370Z,9.06
2023-09-24T16:44:29.663Z,7.10
2023-09-24T16:47:02.988Z,7.92
2023-09-24T16:49:38.746Z,8.25
2023-09-24T16:52:11.999Z,10.48
2023-09-24T16:54:47.636Z,8.51
2023-09-24T16:57:20.884Z,7.52
2023-09-24T16:59:54.324Z,9.03
2023-09-24T17:02:27.578Z,9.62
2023-09-24T17:05:00.916Z,9.82
2023-09-24T17:07:34.845Z,10.84
2023-09-24T17:10:11.943Z,8.55
2023-09-24T17:12:45.669Z,10.30
2023-09-24T17:15:19.490Z,10.59
2023-09-24T17:17:52.720Z,11.63
2023-09-24T17:20:26.558Z,12.13
2023-09-24T17:22:59.722Z,11.73
2023-09-24T17:25:34.405Z,12.52
2023-09-24T17:28:07.783Z,13.06
2023-09-24T17:30:41.090Z,11.65
2023-09-24T17:33:18.943Z,12.64
2023-09-24T17:35:52.368Z,13.02
2023-09-24T17:38:25.501Z,15.79
2023-09-24T17:41:04.250Z,15.79
2023-09-24T17:43:37.431Z,13.44
2023-09-24T17:46:17.195Z,15.33
2023-09-24T17:48:50.720Z,17.51
2023-09-24T17:51:23.918Z,16.21
2023-09-24T17:53:57.090Z,15.30
2023-09-24T17:56:31.624Z,16.46
2023-09-24T17:59:04.742Z,14.74
2023-09-24T18:01:37.923Z,15.88
2023-09-24T18:04:11.110Z,15.75
2023-09-24T18:06:44.303Z,15.57
2023-09-24T18:09:18.156Z,15.24
2023-09-24T18:11:55.818Z,16.52
2023-09-24T18:14:34.309Z,16.53
2023-09-24T18:17:07.995Z,15.49
2023-09-24T18:19:41.861Z,14.32
2023-09-24T18:22:14.986Z,15.70
2023-09-24T18:24:48.179Z,18.92
2023-09-24T18:27:22.807Z,12.64
2023-09-24T18:29:56.026Z,12.98
2023-09-24T18:32:29.192Z,13.69
2023-09-24T18:35:02.666Z,16.92
2023-09-24T18:37:35.806Z,18.41
2023-09-24T18:40:10.313Z,17.89
2023-09-24T18:42:45.410Z,14.26
2023-09-24T18:45:18.545Z,15.60
2023-09-24T18:47:51.954Z,15.21
2023-09-24T18:50:25.296Z,13.53
2023-09-24T18:53:00.683Z,15.68
2023-09-24T18:55:33.991Z,20.58
2023-09-24T18:58:08.667Z,16.01
2023-09-24T19:00:42.030Z,16.80
2023-09-24T19:03:16.047Z,21.44
2023-09-24T19:05:49.413Z,19.14
2023-09-24T19:08:23.442Z,19.32
2023-09-24T19:10:58.591Z,20.34
2023-09-24T19:13:33.110Z,21.87
2023-09-24T19:16:07.919Z,23.74
2023-09-24T19:18:41.369Z,25.10
2023-09-24T19:21:14.573Z,26.24
2023-09-24T19:23:47.915Z,27.25
2023-09-24T19:26:21.168Z,26.58
2023-09-24T19:28:55.733Z,26.37
2023-09-24T19:31:28.919Z,28.86
2023-09-24T19:34:02.260Z,49.16
2023-09-24T19:36:35.491Z,56.73
2023-09-24T19:39:09.215Z,54.80
2023-09-24T19:41:42.356Z,46.77
2023-09-24T19:44:20.130Z,43.46
2023-09-24T19:46:53.337Z,39.08
2023-09-24T19:49:28.755Z,36.12
2023-09-24T19:52:01.850Z,35.86
2023-09-24T19:54:35.113Z,30.97
2023-09-24T19:57:08.251Z,27.42
2023-09-24T19:59:42.812Z,30.40
2023-09-24T20:02:16.221Z,27.15
2023-09-24T20:04:49.458Z,25.83
2023-09-24T20:07:22.567Z,25.63
2023-09-24T20:09:58.314Z,27.46
2023-09-24T20:12:32.155Z,29.24
2023-09-24T20:15:09.383Z,25.26
2023-09-24T20:17:42.516Z,24.15
2023-09-24T20:20:16.441Z,20.68
2023-09-24T20:22:51.871Z,19.56
2023-09-24T20:25:32.786Z,19.48
2023-09-24T20:28:06.450Z,18.72
2023-09-24T20:30:40.954Z,16.41
2023-09-24T20:33:28.063Z,16.27
2023-09-24T20:36:03.405Z,17.00
2023-09-24T20:38:36.838Z,16.20
2023-09-24T20:41:14.860Z,17.01
2023-09-24T20:43:48.281Z,14.10
2023-09-24T20:46:24.525Z,15.64
2023-09-24T20:48:57.685Z,15.33
2023-09-24T20:51:31.118Z,15.40
2023-09-24T20:54:05.003Z,14.47
2023-09-24T20:56:40.320Z,13.87
2023-09-24T20:59:23.526Z,15.17
2023-09-24T21:02:04.638Z,13.96
2023-09-24T21:04:38.616Z,14.95
2023-09-24T21:07:13.528Z,16.67
2023-09-24T21:09:46.794Z,15.25
2023-09-24T21:12:22.641Z,14.30
2023-09-24T21:14:56.855Z,15.67
2023-09-24T21:17:31.387Z,16.07
2023-09-24T21:20:06.406Z,15.76
2023-09-24T21:22:39.578Z,13.56
2023-09-24T21:25:15.101Z,14.46
2023-09-24T21:27:48.268Z,15.66
2023-09-24T21:30:21.926Z,13.77
2023-09-24T21:32:56.628Z,16.68
2023-09-24T21:35:30.963Z,16.38
2023-09-24T21:38:04.211Z,14.67
2023-09-24T21:40:37.362Z,16.00
2023-09-24T21:43:10.964Z,17.54
2023-09-24T21:45:44.139Z,16.88
2023-09-24T21:48:18.719Z,16.52
2023-09-24T21:50:52.064Z,16.56
2023-09-24T21:53:25.242Z,15.71
2023-09-24T21:55:58.489Z,16.19
2023-09-24T21:58:31.629Z,17.86
2023-09-24T22:01:05.726Z,17.31
2023-09-24T22:03:40.249Z,16.91
2023-09-24T22:06:13.950Z,16.91
2023-09-24T22:08:47.350Z,16.93
2023-09-24T22:11:20.638Z,17.11
2023-09-24T22:13:53.851Z,18.92
2023-09-24T22:16:26.971Z,15.94
2023-09-24T22:19:01.505Z,18.27
2023-09-24T22:21:35.163Z,17.89
2023-09-24T22:24:09.302Z,17.47
2023-09-24T22:26:42.481Z,17.47
2023-09-24T22:29:15.640Z,17.53
2023-09-24T22:31:50.125Z,17.47
2023-09-24T22:34:24.759Z,17.88
2023-09-24T22:36:57.911Z,17.74
2023-09-24T22:39:31.112Z,18.00
2023-09-24T22:42:04.440Z,17.12
2023-09-24T22:44:37.698Z,19.33
2023-09-24T22:47:10.839Z,18.73
2023-09-24T22:49:45.432Z,18.76
2023-09-24T22:52:18.698Z,19.17
2023-09-24T22:54:52.590Z,20.67
2023-09-24T22:57:28.346Z,18.51
2023-09-24T23:00:02.070Z,17.30
2023-09-24T23:02:35.313Z,19.50
2023-09-24T23:05:10.581Z,21.15
2023-09-24T23:07:46.375Z,26.17
2023-09-24T23:10:20.254Z,24.20
2023-09-24T23:12:53.415Z,20.71
2023-09-24T23:15:27.190Z,19.87
2023-09-24T23:18:00.548Z,20.80
2023-09-24T23:20:35.219Z,19.93
2023-09-24T23:23:08.341Z,19.09
2023-09-24T23:25:44.931Z,21.58
2023-09-24T23:28:18.374Z,20.21
2023-09-24T23:30:53.730Z,20.78
2023-09-24T23:33:27.196Z,19.24
2023-09-24T23:36:01.775Z,22.87
2023-09-24T23:38:35.052Z,23.41
2023-09-24T23:41:08.186Z,22.48
2023-09-24T23:43:41.330Z,21.70
2023-09-24T23:46:14.479Z,23.14
2023-09-24T23:48:47.882Z,22.28
2023-09-24T23:51:22.561Z,21.17
2023-09-24T23:53:55.869Z,20.54
2023-09-24T23:56:29.085Z,19.62
2023-09-24T23:59:02.291Z,19.34
